Etusivu
METAR-TAF:

METAR-TAF

Lentoasemat :

Nouakchottin kansainvälinen lentoasema

Nouakchott, Mauritania

Leveyspiiri: 18-18-36N, Pituuspiiri: 015-58-11W, korkeus merenpinnasta: 3 m

Tämänhetkinen sää

Tämä raportti tehtiin 23 minuuttia sitten, kello 18.00 UTC
Tuuli 8 kn luoteesta
Lämpötila 25°C
Kosteus 50%
Ilmanpaine 1013 hPa
Näkyvyys 10 km tai enemmän
ei pilviä alle 1500 m:ssä eikä cumulonimbus-pilviä

METAR: GQNO 211800Z 31008KT CAVOK 25/14 Q1013 NOSIG

Aika: 18:23 (18:23 UTC)

Sääennuste

Tämä raportti tehtiin 1 tunti ja 23 minuuttia sitten, kello 17.00 UTC
Ennuste voimassa 21. päivästä klo 18 UTC - 22. päivään klo 24 UTC
Tuuli 10 kn pohjoisen/luoteesta
Näkyvyys: 8000 m
Todennäköisyys 30% :
Ajoittain
22. päivästä klo 09 UTC - 22. päivään klo 12 UTC
Tuuli 8 kn pohjoisesta/koillisesta

TAF: GQNO 211700Z 2118/2224 33010KT 8000 NSC PROB30 TEMPO 2209/2212 03008KT

Säähavainnot ja -ennusteet yli 4000 lentoasemalta (METAR- ja TAF-raportit).

Käytössä olevat sääasemat on merkitty karttaan keltaisilla ja punaisilla pisteillä.

Aseta hiiri pisteen päälle nähdäksesi sääaseman nimen.

Klikkaa sitten nähdäksesi säähavainnot ja -ennusteet.

Kartan vaihtaminen: klikkaa mustalla rastilla varustettuja vihreitä pisteitä, niin voit zoomata sisään; viivalla varustettua vihreää pistettä, niin voit zoomata ulos tai vihreitä nuolia, niin pääset viereisille kartoille.


METAR-TAF: